Terminal Aerodrome Forecast
Issued by NWS

Current Version | Previous Version | Text Only | Print | Product List | Glossary On
Versions: 1 2 3 4 5 6 7 8 9 10 11 12 13 14 15
186
FTUS44 KLZK 111727
TAFLLQ
TAF
KLLQ 111727Z 1118/1218 30010KT P6SM SKC
     FM120000 01004KT P6SM SCT250=

USA.gov is the U.S. government's official web portal to all federal, state and local government web resources and services.